sensor_id;sensor_type;location;lat;lon;timestamp;P1;durP1;ratioP1;P2;durP2;ratioP2
50319;SDS011;36226;53.464;9.852;2023-05-23T00:01:20;11.68;;;10.38;;
50319;SDS011;36226;53.464;9.852;2023-05-23T00:03:46;10.93;;;8.70;;
50319;SDS011;36226;53.464;9.852;2023-05-23T00:06:13;11.02;;;9.43;;
50319;SDS011;36226;53.464;9.852;2023-05-23T00:08:38;10.10;;;9.00;;
50319;SDS011;36226;53.464;9.852;2023-05-23T00:11:04;12.45;;;9.93;;
50319;SDS011;36226;53.464;9.852;2023-05-23T00:13:29;14.35;;;10.20;;
50319;SDS011;36226;53.464;9.852;2023-05-23T00:15:57;15.25;;;9.38;;
50319;SDS011;36226;53.464;9.852;2023-05-23T00:18:22;12.50;;;9.60;;
50319;SDS011;36226;53.464;9.852;2023-05-23T00:20:48;12.82;;;9.68;;
50319;SDS011;36226;53.464;9.852;2023-05-23T00:23:15;10.77;;;9.68;;
50319;SDS011;36226;53.464;9.852;2023-05-23T00:25:45;12.05;;;9.05;;
50319;SDS011;36226;53.464;9.852;2023-05-23T00:28:16;11.07;;;9.25;;
50319;SDS011;36226;53.464;9.852;2023-05-23T00:30:41;14.18;;;9.80;;
50319;SDS011;36226;53.464;9.852;2023-05-23T00:33:07;12.80;;;9.63;;
50319;SDS011;36226;53.464;9.852;2023-05-23T00:35:32;13.57;;;8.98;;
50319;SDS011;36226;53.464;9.852;2023-05-23T00:37:58;13.25;;;10.15;;
50319;SDS011;36226;53.464;9.852;2023-05-23T00:40:23;13.07;;;10.48;;
50319;SDS011;36226;53.464;9.852;2023-05-23T00:42:48;12.20;;;9.82;;
50319;SDS011;36226;53.464;9.852;2023-05-23T00:45:14;11.10;;;9.90;;
50319;SDS011;36226;53.464;9.852;2023-05-23T00:47:41;10.10;;;9.10;;
50319;SDS011;36226;53.464;9.852;2023-05-23T00:50:12;13.43;;;9.98;;
50319;SDS011;36226;53.464;9.852;2023-05-23T00:52:41;12.15;;;9.75;;
50319;SDS011;36226;53.464;9.852;2023-05-23T00:55:07;11.57;;;9.85;;
50319;SDS011;36226;53.464;9.852;2023-05-23T00:57:33;12.95;;;9.50;;
50319;SDS011;36226;53.464;9.852;2023-05-23T01:00:04;11.45;;;10.25;;
50319;SDS011;36226;53.464;9.852;2023-05-23T01:02:40;13.43;;;11.32;;
50319;SDS011;36226;53.464;9.852;2023-05-23T01:05:09;16.58;;;13.52;;
50319;SDS011;36226;53.464;9.852;2023-05-23T01:07:38;18.15;;;13.60;;
50319;SDS011;36226;53.464;9.852;2023-05-23T01:10:04;22.27;;;16.48;;
50319;SDS011;36226;53.464;9.852;2023-05-23T01:15:11;29.98;;;22.85;;
50319;SDS011;36226;53.464;9.852;2023-05-23T01:20:15;31.60;;;24.13;;
50319;SDS011;36226;53.464;9.852;2023-05-23T01:25:27;36.22;;;28.73;;
50319;SDS011;36226;53.464;9.852;2023-05-23T01:28:20;37.70;;;28.88;;
50319;SDS011;36226;53.464;9.852;2023-05-23T01:30:47;40.53;;;29.88;;
50319;SDS011;36226;53.464;9.852;2023-05-23T01:33:16;40.55;;;31.38;;
50319;SDS011;36226;53.464;9.852;2023-05-23T01:35:42;41.50;;;30.15;;
50319;SDS011;36226;53.464;9.852;2023-05-23T01:38:08;38.25;;;30.20;;
50319;SDS011;36226;53.464;9.852;2023-05-23T01:40:33;37.20;;;30.10;;
50319;SDS011;36226;53.464;9.852;2023-05-23T01:42:59;46.92;;;30.48;;
50319;SDS011;36226;53.464;9.852;2023-05-23T01:45:25;40.38;;;30.73;;
50319;SDS011;36226;53.464;9.852;2023-05-23T01:47:52;44.45;;;31.50;;
50319;SDS011;36226;53.464;9.852;2023-05-23T01:50:17;46.40;;;33.40;;
50319;SDS011;36226;53.464;9.852;2023-05-23T01:52:43;54.17;;;36.40;;
50319;SDS011;36226;53.464;9.852;2023-05-23T01:55:10;48.63;;;34.88;;
50319;SDS011;36226;53.464;9.852;2023-05-23T01:57:38;50.95;;;35.53;;
50319;SDS011;36226;53.464;9.852;2023-05-23T02:00:04;57.53;;;37.25;;
50319;SDS011;36226;53.464;9.852;2023-05-23T02:02:31;51.50;;;36.03;;
50319;SDS011;36226;53.464;9.852;2023-05-23T02:04:59;51.83;;;35.65;;
50319;SDS011;36226;53.464;9.852;2023-05-23T02:07:25;54.38;;;35.40;;
50319;SDS011;36226;53.464;9.852;2023-05-23T02:09:50;54.33;;;34.42;;
50319;SDS011;36226;53.464;9.852;2023-05-23T02:12:15;57.58;;;34.83;;
50319;SDS011;36226;53.464;9.852;2023-05-23T02:14:41;50.90;;;32.33;;
50319;SDS011;36226;53.464;9.852;2023-05-23T02:17:06;51.17;;;33.63;;
50319;SDS011;36226;53.464;9.852;2023-05-23T02:19:35;54.38;;;33.13;;
50319;SDS011;36226;53.464;9.852;2023-05-23T02:22:01;56.92;;;31.98;;
50319;SDS011;36226;53.464;9.852;2023-05-23T02:24:27;56.33;;;34.88;;
50319;SDS011;36226;53.464;9.852;2023-05-23T02:26:52;57.78;;;34.55;;
50319;SDS011;36226;53.464;9.852;2023-05-23T02:29:18;53.58;;;35.05;;
50319;SDS011;36226;53.464;9.852;2023-05-23T02:31:43;62.97;;;36.05;;
50319;SDS011;36226;53.464;9.852;2023-05-23T02:34:08;58.10;;;34.83;;
50319;SDS011;36226;53.464;9.852;2023-05-23T02:36:34;64.40;;;35.03;;
50319;SDS011;36226;53.464;9.852;2023-05-23T02:39:01;57.08;;;34.22;;
50319;SDS011;36226;53.464;9.852;2023-05-23T02:41:29;54.53;;;34.65;;
50319;SDS011;36226;53.464;9.852;2023-05-23T02:43:55;48.90;;;32.55;;
50319;SDS011;36226;53.464;9.852;2023-05-23T02:46:20;54.33;;;33.35;;
50319;SDS011;36226;53.464;9.852;2023-05-23T02:48:45;57.97;;;34.05;;
50319;SDS011;36226;53.464;9.852;2023-05-23T02:51:11;58.63;;;34.13;;
50319;SDS011;36226;53.464;9.852;2023-05-23T02:53:37;58.97;;;36.40;;
50319;SDS011;36226;53.464;9.852;2023-05-23T02:56:03;54.97;;;33.60;;
50319;SDS011;36226;53.464;9.852;2023-05-23T02:58:28;61.00;;;36.38;;
50319;SDS011;36226;53.464;9.852;2023-05-23T03:00:54;58.72;;;34.67;;
50319;SDS011;36226;53.464;9.852;2023-05-23T03:03:19;57.90;;;33.53;;
50319;SDS011;36226;53.464;9.852;2023-05-23T03:05:45;65.18;;;34.65;;
50319;SDS011;36226;53.464;9.852;2023-05-23T03:08:10;52.60;;;32.25;;
50319;SDS011;36226;53.464;9.852;2023-05-23T03:10:36;59.72;;;33.10;;
50319;SDS011;36226;53.464;9.852;2023-05-23T03:13:01;53.55;;;30.58;;
50319;SDS011;36226;53.464;9.852;2023-05-23T03:15:26;51.72;;;29.80;;
50319;SDS011;36226;53.464;9.852;2023-05-23T03:17:52;52.00;;;31.58;;
50319;SDS011;36226;53.464;9.852;2023-05-23T03:20:17;57.13;;;30.55;;
50319;SDS011;36226;53.464;9.852;2023-05-23T03:22:43;51.97;;;30.63;;
50319;SDS011;36226;53.464;9.852;2023-05-23T03:25:09;59.10;;;33.97;;
50319;SDS011;36226;53.464;9.852;2023-05-23T03:27:34;53.92;;;30.08;;
50319;SDS011;36226;53.464;9.852;2023-05-23T03:30:01;48.63;;;28.52;;
50319;SDS011;36226;53.464;9.852;2023-05-23T03:32:27;45.35;;;27.50;;
50319;SDS011;36226;53.464;9.852;2023-05-23T03:34:52;49.45;;;27.05;;
50319;SDS011;36226;53.464;9.852;2023-05-23T03:37:20;42.53;;;25.23;;
50319;SDS011;36226;53.464;9.852;2023-05-23T03:39:46;43.65;;;24.83;;
50319;SDS011;36226;53.464;9.852;2023-05-23T03:42:11;43.15;;;25.85;;
50319;SDS011;36226;53.464;9.852;2023-05-23T03:44:36;46.85;;;25.42;;
50319;SDS011;36226;53.464;9.852;2023-05-23T03:47:02;43.17;;;25.27;;
50319;SDS011;36226;53.464;9.852;2023-05-23T03:49:27;47.53;;;25.33;;
50319;SDS011;36226;53.464;9.852;2023-05-23T03:51:52;45.47;;;24.77;;
50319;SDS011;36226;53.464;9.852;2023-05-23T03:54:18;48.10;;;25.48;;
50319;SDS011;36226;53.464;9.852;2023-05-23T03:56:43;48.10;;;25.77;;
50319;SDS011;36226;53.464;9.852;2023-05-23T03:59:08;50.42;;;26.38;;
50319;SDS011;36226;53.464;9.852;2023-05-23T04:01:33;46.65;;;24.95;;
50319;SDS011;36226;53.464;9.852;2023-05-23T04:03:59;50.17;;;25.95;;
50319;SDS011;36226;53.464;9.852;2023-05-23T04:06:24;48.63;;;27.13;;
50319;SDS011;36226;53.464;9.852;2023-05-23T04:08:50;44.25;;;25.08;;
50319;SDS011;36226;53.464;9.852;2023-05-23T04:11:15;46.75;;;24.60;;
50319;SDS011;36226;53.464;9.852;2023-05-23T04:13:41;43.42;;;24.65;;
50319;SDS011;36226;53.464;9.852;2023-05-23T04:16:07;44.33;;;24.27;;
50319;SDS011;36226;53.464;9.852;2023-05-23T04:18:33;41.05;;;24.50;;
50319;SDS011;36226;53.464;9.852;2023-05-23T04:20:58;41.08;;;24.15;;
50319;SDS011;36226;53.464;9.852;2023-05-23T04:23:24;43.80;;;23.77;;
50319;SDS011;36226;53.464;9.852;2023-05-23T04:25:49;50.70;;;25.17;;
50319;SDS011;36226;53.464;9.852;2023-05-23T04:28:15;48.67;;;26.48;;
50319;SDS011;36226;53.464;9.852;2023-05-23T04:30:41;45.70;;;25.58;;
50319;SDS011;36226;53.464;9.852;2023-05-23T04:33:07;44.53;;;25.42;;
50319;SDS011;36226;53.464;9.852;2023-05-23T04:35:34;37.13;;;22.85;;
50319;SDS011;36226;53.464;9.852;2023-05-23T04:38:03;45.47;;;24.52;;
50319;SDS011;36226;53.464;9.852;2023-05-23T04:40:28;45.78;;;25.42;;
50319;SDS011;36226;53.464;9.852;2023-05-23T04:42:54;40.88;;;23.83;;
50319;SDS011;36226;53.464;9.852;2023-05-23T04:45:20;44.65;;;24.63;;
50319;SDS011;36226;53.464;9.852;2023-05-23T04:47:46;46.03;;;24.58;;
50319;SDS011;36226;53.464;9.852;2023-05-23T04:50:11;41.58;;;23.30;;
50319;SDS011;36226;53.464;9.852;2023-05-23T04:52:38;43.42;;;24.58;;
50319;SDS011;36226;53.464;9.852;2023-05-23T04:55:04;44.50;;;25.05;;
50319;SDS011;36226;53.464;9.852;2023-05-23T04:57:30;50.17;;;25.60;;
50319;SDS011;36226;53.464;9.852;2023-05-23T04:59:56;45.55;;;24.73;;
50319;SDS011;36226;53.464;9.852;2023-05-23T05:02:21;47.22;;;24.80;;
50319;SDS011;36226;53.464;9.852;2023-05-23T05:04:47;49.58;;;26.63;;
50319;SDS011;36226;53.464;9.852;2023-05-23T05:07:12;47.92;;;26.90;;
50319;SDS011;36226;53.464;9.852;2023-05-23T05:09:37;50.40;;;26.63;;
50319;SDS011;36226;53.464;9.852;2023-05-23T05:12:03;54.65;;;26.70;;
50319;SDS011;36226;53.464;9.852;2023-05-23T05:14:28;57.88;;;28.05;;
50319;SDS011;36226;53.464;9.852;2023-05-23T05:16:54;51.10;;;28.00;;
50319;SDS011;36226;53.464;9.852;2023-05-23T05:19:21;58.65;;;27.77;;
50319;SDS011;36226;53.464;9.852;2023-05-23T05:21:47;53.90;;;27.00;;
50319;SDS011;36226;53.464;9.852;2023-05-23T05:24:12;59.70;;;29.45;;
50319;SDS011;36226;53.464;9.852;2023-05-23T05:26:39;67.00;;;29.10;;
50319;SDS011;36226;53.464;9.852;2023-05-23T05:29:05;63.38;;;29.35;;
50319;SDS011;36226;53.464;9.852;2023-05-23T05:31:30;65.45;;;31.05;;
50319;SDS011;36226;53.464;9.852;2023-05-23T05:33:56;61.88;;;29.80;;
50319;SDS011;36226;53.464;9.852;2023-05-23T05:36:22;57.47;;;28.10;;
50319;SDS011;36226;53.464;9.852;2023-05-23T05:38:47;67.43;;;31.55;;
50319;SDS011;36226;53.464;9.852;2023-05-23T05:41:12;73.00;;;31.35;;
50319;SDS011;36226;53.464;9.852;2023-05-23T05:43:38;65.53;;;30.33;;
50319;SDS011;36226;53.464;9.852;2023-05-23T05:46:03;71.20;;;32.30;;
50319;SDS011;36226;53.464;9.852;2023-05-23T05:48:29;64.47;;;31.17;;
50319;SDS011;36226;53.464;9.852;2023-05-23T05:50:54;70.30;;;29.92;;
50319;SDS011;36226;53.464;9.852;2023-05-23T05:53:20;58.95;;;29.40;;
50319;SDS011;36226;53.464;9.852;2023-05-23T05:55:45;60.67;;;29.58;;
50319;SDS011;36226;53.464;9.852;2023-05-23T05:58:10;56.33;;;29.52;;
50319;SDS011;36226;53.464;9.852;2023-05-23T06:00:36;60.65;;;29.27;;
50319;SDS011;36226;53.464;9.852;2023-05-23T06:03:06;59.85;;;29.05;;
50319;SDS011;36226;53.464;9.852;2023-05-23T06:05:32;57.80;;;29.92;;
50319;SDS011;36226;53.464;9.852;2023-05-23T06:07:58;55.03;;;29.20;;
50319;SDS011;36226;53.464;9.852;2023-05-23T06:10:23;55.33;;;28.35;;
50319;SDS011;36226;53.464;9.852;2023-05-23T06:12:49;57.17;;;30.80;;
50319;SDS011;36226;53.464;9.852;2023-05-23T06:15:14;59.92;;;29.63;;
50319;SDS011;36226;53.464;9.852;2023-05-23T06:17:40;58.92;;;29.77;;
50319;SDS011;36226;53.464;9.852;2023-05-23T06:20:06;57.75;;;30.42;;
50319;SDS011;36226;53.464;9.852;2023-05-23T06:22:32;65.05;;;32.00;;
50319;SDS011;36226;53.464;9.852;2023-05-23T06:24:58;63.85;;;30.90;;
50319;SDS011;36226;53.464;9.852;2023-05-23T06:27:23;59.15;;;32.10;;
50319;SDS011;36226;53.464;9.852;2023-05-23T06:29:48;70.53;;;33.58;;
50319;SDS011;36226;53.464;9.852;2023-05-23T06:32:14;75.72;;;34.83;;
50319;SDS011;36226;53.464;9.852;2023-05-23T06:34:41;77.65;;;34.88;;
50319;SDS011;36226;53.464;9.852;2023-05-23T06:37:07;76.35;;;33.95;;
50319;SDS011;36226;53.464;9.852;2023-05-23T06:39:32;77.28;;;34.88;;
50319;SDS011;36226;53.464;9.852;2023-05-23T06:41:57;65.70;;;32.78;;
50319;SDS011;36226;53.464;9.852;2023-05-23T06:44:23;59.10;;;28.55;;
50319;SDS011;36226;53.464;9.852;2023-05-23T06:46:48;50.78;;;26.27;;
50319;SDS011;36226;53.464;9.852;2023-05-23T06:49:14;50.88;;;27.13;;
50319;SDS011;36226;53.464;9.852;2023-05-23T06:51:39;47.97;;;25.15;;
50319;SDS011;36226;53.464;9.852;2023-05-23T06:54:05;48.00;;;25.70;;
50319;SDS011;36226;53.464;9.852;2023-05-23T06:56:30;43.80;;;24.08;;
50319;SDS011;36226;53.464;9.852;2023-05-23T06:58:56;34.75;;;22.33;;
50319;SDS011;36226;53.464;9.852;2023-05-23T07:01:21;29.35;;;20.17;;
50319;SDS011;36226;53.464;9.852;2023-05-23T07:03:46;26.55;;;18.77;;
50319;SDS011;36226;53.464;9.852;2023-05-23T07:06:12;27.38;;;17.35;;
50319;SDS011;36226;53.464;9.852;2023-05-23T07:08:37;25.38;;;16.08;;
50319;SDS011;36226;53.464;9.852;2023-05-23T07:11:03;22.10;;;15.88;;
50319;SDS011;36226;53.464;9.852;2023-05-23T07:13:28;20.65;;;14.02;;
50319;SDS011;36226;53.464;9.852;2023-05-23T07:15:54;20.02;;;13.57;;
50319;SDS011;36226;53.464;9.852;2023-05-23T07:18:20;19.38;;;12.88;;
50319;SDS011;36226;53.464;9.852;2023-05-23T07:20:45;18.30;;;12.60;;
50319;SDS011;36226;53.464;9.852;2023-05-23T07:23:10;19.50;;;12.13;;
50319;SDS011;36226;53.464;9.852;2023-05-23T07:25:36;14.75;;;11.38;;
50319;SDS011;36226;53.464;9.852;2023-05-23T07:28:01;17.55;;;10.73;;
50319;SDS011;36226;53.464;9.852;2023-05-23T07:30:26;14.35;;;10.77;;
50319;SDS011;36226;53.464;9.852;2023-05-23T07:32:52;15.10;;;10.68;;
50319;SDS011;36226;53.464;9.852;2023-05-23T07:35:17;13.75;;;10.98;;
50319;SDS011;36226;53.464;9.852;2023-05-23T07:37:47;16.13;;;10.77;;
50319;SDS011;36226;53.464;9.852;2023-05-23T07:40:13;16.88;;;11.45;;
50319;SDS011;36226;53.464;9.852;2023-05-23T07:42:38;17.20;;;11.15;;
50319;SDS011;36226;53.464;9.852;2023-05-23T07:45:04;18.20;;;12.32;;
50319;SDS011;36226;53.464;9.852;2023-05-23T07:47:29;20.17;;;12.60;;
50319;SDS011;36226;53.464;9.852;2023-05-23T07:49:55;17.67;;;12.45;;
50319;SDS011;36226;53.464;9.852;2023-05-23T07:52:20;19.55;;;11.95;;
50319;SDS011;36226;53.464;9.852;2023-05-23T07:54:46;18.65;;;11.85;;
50319;SDS011;36226;53.464;9.852;2023-05-23T07:57:11;18.80;;;12.45;;
50319;SDS011;36226;53.464;9.852;2023-05-23T07:59:37;17.38;;;11.98;;
50319;SDS011;36226;53.464;9.852;2023-05-23T08:02:02;20.58;;;12.82;;
50319;SDS011;36226;53.464;9.852;2023-05-23T08:04:28;19.60;;;12.50;;
50319;SDS011;36226;53.464;9.852;2023-05-23T08:06:53;17.08;;;11.55;;
50319;SDS011;36226;53.464;9.852;2023-05-23T08:09:19;14.70;;;11.23;;
50319;SDS011;36226;53.464;9.852;2023-05-23T08:11:45;14.68;;;10.60;;
50319;SDS011;36226;53.464;9.852;2023-05-23T08:14:10;14.48;;;10.52;;
50319;SDS011;36226;53.464;9.852;2023-05-23T08:16:36;12.63;;;9.30;;
50319;SDS011;36226;53.464;9.852;2023-05-23T08:19:01;12.52;;;9.02;;
50319;SDS011;36226;53.464;9.852;2023-05-23T08:21:27;10.35;;;7.65;;
50319;SDS011;36226;53.464;9.852;2023-05-23T08:23:52;11.60;;;7.78;;
50319;SDS011;36226;53.464;9.852;2023-05-23T08:26:18;11.48;;;7.65;;
50319;SDS011;36226;53.464;9.852;2023-05-23T08:28:43;10.30;;;7.95;;
50319;SDS011;36226;53.464;9.852;2023-05-23T08:31:08;10.18;;;7.85;;
50319;SDS011;36226;53.464;9.852;2023-05-23T08:33:34;10.68;;;8.52;;
50319;SDS011;36226;53.464;9.852;2023-05-23T08:35:59;13.93;;;9.68;;
50319;SDS011;36226;53.464;9.852;2023-05-23T08:38:24;13.00;;;9.60;;
50319;SDS011;36226;53.464;9.852;2023-05-23T08:40:51;21.25;;;14.40;;
50319;SDS011;36226;53.464;9.852;2023-05-23T08:43:17;28.17;;;19.38;;
50319;SDS011;36226;53.464;9.852;2023-05-23T08:45:43;28.17;;;20.25;;
50319;SDS011;36226;53.464;9.852;2023-05-23T08:48:09;30.38;;;20.75;;
50319;SDS011;36226;53.464;9.852;2023-05-23T08:50:37;31.25;;;19.65;;
50319;SDS011;36226;53.464;9.852;2023-05-23T08:53:04;30.42;;;19.70;;
50319;SDS011;36226;53.464;9.852;2023-05-23T08:55:33;27.98;;;17.58;;
50319;SDS011;36226;53.464;9.852;2023-05-23T08:57:58;29.58;;;18.70;;
50319;SDS011;36226;53.464;9.852;2023-05-23T09:00:24;29.58;;;18.08;;
50319;SDS011;36226;53.464;9.852;2023-05-23T09:02:51;34.42;;;21.95;;
50319;SDS011;36226;53.464;9.852;2023-05-23T09:05:18;33.40;;;21.92;;
50319;SDS011;36226;53.464;9.852;2023-05-23T09:07:44;37.28;;;24.13;;
50319;SDS011;36226;53.464;9.852;2023-05-23T09:10:13;36.20;;;22.90;;
50319;SDS011;36226;53.464;9.852;2023-05-23T09:12:42;31.90;;;20.80;;
50319;SDS011;36226;53.464;9.852;2023-05-23T09:15:08;30.48;;;18.98;;
50319;SDS011;36226;53.464;9.852;2023-05-23T09:17:34;26.38;;;16.75;;
50319;SDS011;36226;53.464;9.852;2023-05-23T09:20:00;23.98;;;15.52;;
50319;SDS011;36226;53.464;9.852;2023-05-23T09:22:27;22.83;;;14.38;;
50319;SDS011;36226;53.464;9.852;2023-05-23T09:24:53;22.88;;;12.18;;
50319;SDS011;36226;53.464;9.852;2023-05-23T09:27:19;17.98;;;9.05;;
50319;SDS011;36226;53.464;9.852;2023-05-23T09:29:45;14.82;;;6.60;;
50319;SDS011;36226;53.464;9.852;2023-05-23T09:32:12;10.43;;;5.20;;
50319;SDS011;36226;53.464;9.852;2023-05-23T09:34:39;10.40;;;5.63;;
50319;SDS011;36226;53.464;9.852;2023-05-23T09:37:39;8.23;;;4.13;;
50319;SDS011;36226;53.464;9.852;2023-05-23T09:40:07;9.00;;;3.70;;
50319;SDS011;36226;53.464;9.852;2023-05-23T09:42:34;12.20;;;3.90;;
50319;SDS011;36226;53.464;9.852;2023-05-23T09:44:59;9.60;;;4.20;;
50319;SDS011;36226;53.464;9.852;2023-05-23T09:47:25;11.40;;;5.38;;
50319;SDS011;36226;53.464;9.852;2023-05-23T09:49:51;12.10;;;6.07;;
50319;SDS011;36226;53.464;9.852;2023-05-23T09:52:16;19.55;;;10.77;;
50319;SDS011;36226;53.464;9.852;2023-05-23T09:54:44;15.93;;;12.27;;
50319;SDS011;36226;53.464;9.852;2023-05-23T09:57:10;17.25;;;10.05;;
50319;SDS011;36226;53.464;9.852;2023-05-23T09:59:37;16.58;;;9.35;;
50319;SDS011;36226;53.464;9.852;2023-05-23T10:02:05;14.20;;;7.40;;
50319;SDS011;36226;53.464;9.852;2023-05-23T10:04:40;13.85;;;6.30;;
50319;SDS011;36226;53.464;9.852;2023-05-23T10:07:13;10.02;;;4.60;;
50319;SDS011;36226;53.464;9.852;2023-05-23T10:09:44;13.82;;;4.60;;
50319;SDS011;36226;53.464;9.852;2023-05-23T10:14:42;11.23;;;4.90;;
50319;SDS011;36226;53.464;9.852;2023-05-23T10:17:11;14.95;;;6.85;;
50319;SDS011;36226;53.464;9.852;2023-05-23T10:19:45;19.55;;;8.57;;
50319;SDS011;36226;53.464;9.852;2023-05-23T10:22:13;20.73;;;8.90;;
50319;SDS011;36226;53.464;9.852;2023-05-23T10:24:40;19.98;;;9.32;;
50319;SDS011;36226;53.464;9.852;2023-05-23T10:27:06;15.48;;;7.72;;
50319;SDS011;36226;53.464;9.852;2023-05-23T10:29:31;11.80;;;6.55;;
50319;SDS011;36226;53.464;9.852;2023-05-23T10:32:00;12.70;;;7.00;;
50319;SDS011;36226;53.464;9.852;2023-05-23T10:37:22;11.70;;;7.63;;
50319;SDS011;36226;53.464;9.852;2023-05-23T10:40:06;14.43;;;7.60;;
50319;SDS011;36226;53.464;9.852;2023-05-23T10:45:29;16.80;;;5.60;;
50319;SDS011;36226;53.464;9.852;2023-05-23T10:47:54;18.90;;;6.10;;
50319;SDS011;36226;53.464;9.852;2023-05-23T10:51:20;12.55;;;4.68;;
50319;SDS011;36226;53.464;9.852;2023-05-23T10:53:40;12.05;;;4.13;;
50319;SDS011;36226;53.464;9.852;2023-05-23T10:56:06;13.90;;;4.07;;
50319;SDS011;36226;53.464;9.852;2023-05-23T10:58:33;13.77;;;4.20;;
50319;SDS011;36226;53.464;9.852;2023-05-23T11:01:01;17.05;;;4.95;;
50319;SDS011;36226;53.464;9.852;2023-05-23T11:04:03;15.45;;;5.07;;
50319;SDS011;36226;53.464;9.852;2023-05-23T11:14:31;12.00;;;5.10;;
50319;SDS011;36226;53.464;9.852;2023-05-23T11:16:57;12.75;;;4.50;;
50319;SDS011;36226;53.464;9.852;2023-05-23T11:19:24;12.98;;;3.80;;
50319;SDS011;36226;53.464;9.852;2023-05-23T11:21:56;10.05;;;3.17;;
50319;SDS011;36226;53.464;9.852;2023-05-23T11:27:26;9.02;;;3.05;;
50319;SDS011;36226;53.464;9.852;2023-05-23T11:32:33;11.77;;;4.35;;
50319;SDS011;36226;53.464;9.852;2023-05-23T11:35:03;12.23;;;3.50;;
50319;SDS011;36226;53.464;9.852;2023-05-23T11:37:30;14.85;;;4.32;;
50319;SDS011;36226;53.464;9.852;2023-05-23T11:39:57;11.93;;;3.50;;
50319;SDS011;36226;53.464;9.852;2023-05-23T11:42:22;12.65;;;3.90;;
50319;SDS011;36226;53.464;9.852;2023-05-23T11:44:49;11.43;;;3.65;;
50319;SDS011;36226;53.464;9.852;2023-05-23T11:47:17;12.95;;;3.33;;
50319;SDS011;36226;53.464;9.852;2023-05-23T11:49:43;12.85;;;3.40;;
50319;SDS011;36226;53.464;9.852;2023-05-23T11:52:12;11.15;;;3.33;;
50319;SDS011;36226;53.464;9.852;2023-05-23T11:54:42;12.68;;;3.40;;
50319;SDS011;36226;53.464;9.852;2023-05-23T11:57:07;14.70;;;3.47;;
50319;SDS011;36226;53.464;9.852;2023-05-23T11:59:33;14.88;;;3.47;;
50319;SDS011;36226;53.464;9.852;2023-05-23T12:02:00;14.98;;;3.40;;
50319;SDS011;36226;53.464;9.852;2023-05-23T12:04:28;13.07;;;3.20;;
50319;SDS011;36226;53.464;9.852;2023-05-23T12:06:54;16.02;;;3.55;;
50319;SDS011;36226;53.464;9.852;2023-05-23T12:09:19;12.60;;;4.18;;
50319;SDS011;36226;53.464;9.852;2023-05-23T12:11:45;10.45;;;2.97;;
50319;SDS011;36226;53.464;9.852;2023-05-23T12:14:13;10.40;;;2.97;;
50319;SDS011;36226;53.464;9.852;2023-05-23T12:16:41;13.90;;;3.15;;
50319;SDS011;36226;53.464;9.852;2023-05-23T12:19:08;15.00;;;3.30;;
50319;SDS011;36226;53.464;9.852;2023-05-23T12:21:46;15.27;;;3.55;;
50319;SDS011;36226;53.464;9.852;2023-05-23T12:24:19;11.05;;;3.47;;
50319;SDS011;36226;53.464;9.852;2023-05-23T12:26:49;11.57;;;2.90;;
50319;SDS011;36226;53.464;9.852;2023-05-23T12:29:27;18.08;;;3.10;;
50319;SDS011;36226;53.464;9.852;2023-05-23T12:32:00;12.25;;;2.80;;
50319;SDS011;36226;53.464;9.852;2023-05-23T12:34:27;13.65;;;3.42;;
50319;SDS011;36226;53.464;9.852;2023-05-23T12:36:55;12.55;;;2.78;;
50319;SDS011;36226;53.464;9.852;2023-05-23T12:39:25;13.68;;;3.13;;
50319;SDS011;36226;53.464;9.852;2023-05-23T12:41:54;11.00;;;2.92;;
50319;SDS011;36226;53.464;9.852;2023-05-23T12:44:25;16.38;;;3.20;;
50319;SDS011;36226;53.464;9.852;2023-05-23T12:46:54;10.95;;;3.08;;
50319;SDS011;36226;53.464;9.852;2023-05-23T12:49:19;10.15;;;3.10;;
50319;SDS011;36226;53.464;9.852;2023-05-23T12:51:45;8.57;;;2.60;;
50319;SDS011;36226;53.464;9.852;2023-05-23T12:54:11;10.00;;;2.38;;
50319;SDS011;36226;53.464;9.852;2023-05-23T12:56:36;7.22;;;2.60;;
50319;SDS011;36226;53.464;9.852;2023-05-23T12:59:02;14.85;;;4.05;;
50319;SDS011;36226;53.464;9.852;2023-05-23T13:01:28;12.43;;;3.47;;
50319;SDS011;36226;53.464;9.852;2023-05-23T13:03:54;12.70;;;3.28;;
50319;SDS011;36226;53.464;9.852;2023-05-23T13:06:19;13.15;;;3.00;;
50319;SDS011;36226;53.464;9.852;2023-05-23T13:08:44;11.65;;;3.53;;
50319;SDS011;36226;53.464;9.852;2023-05-23T13:11:10;10.32;;;2.67;;
50319;SDS011;36226;53.464;9.852;2023-05-23T13:13:36;11.70;;;3.20;;
50319;SDS011;36226;53.464;9.852;2023-05-23T13:16:02;10.88;;;2.78;;
50319;SDS011;36226;53.464;9.852;2023-05-23T13:18:28;10.02;;;2.90;;
50319;SDS011;36226;53.464;9.852;2023-05-23T13:20:53;10.45;;;2.60;;
50319;SDS011;36226;53.464;9.852;2023-05-23T13:23:19;10.85;;;2.45;;
50319;SDS011;36226;53.464;9.852;2023-05-23T13:25:44;10.95;;;2.80;;
50319;SDS011;36226;53.464;9.852;2023-05-23T13:28:10;10.18;;;3.20;;
50319;SDS011;36226;53.464;9.852;2023-05-23T13:30:35;14.98;;;3.10;;
50319;SDS011;36226;53.464;9.852;2023-05-23T13:33:00;10.88;;;2.90;;
50319;SDS011;36226;53.464;9.852;2023-05-23T13:35:27;10.38;;;3.03;;
50319;SDS011;36226;53.464;9.852;2023-05-23T13:37:52;14.35;;;3.33;;
50319;SDS011;36226;53.464;9.852;2023-05-23T13:40:19;11.77;;;3.00;;
50319;SDS011;36226;53.464;9.852;2023-05-23T13:42:46;13.27;;;3.42;;
50319;SDS011;36226;53.464;9.852;2023-05-23T13:45:12;13.50;;;2.78;;
50319;SDS011;36226;53.464;9.852;2023-05-23T13:47:37;16.88;;;3.45;;
50319;SDS011;36226;53.464;9.852;2023-05-23T13:50:03;16.42;;;3.25;;
50319;SDS011;36226;53.464;9.852;2023-05-23T13:52:29;12.15;;;2.90;;
50319;SDS011;36226;53.464;9.852;2023-05-23T13:54:54;14.77;;;3.17;;
50319;SDS011;36226;53.464;9.852;2023-05-23T13:57:20;15.40;;;4.65;;
50319;SDS011;36226;53.464;9.852;2023-05-23T13:59:46;8.73;;;2.53;;
50319;SDS011;36226;53.464;9.852;2023-05-23T14:02:11;8.50;;;2.13;;
50319;SDS011;36226;53.464;9.852;2023-05-23T14:04:36;9.65;;;2.47;;
50319;SDS011;36226;53.464;9.852;2023-05-23T14:07:02;9.27;;;2.67;;
50319;SDS011;36226;53.464;9.852;2023-05-23T14:09:28;12.73;;;2.78;;
50319;SDS011;36226;53.464;9.852;2023-05-23T14:11:53;13.95;;;2.72;;
50319;SDS011;36226;53.464;9.852;2023-05-23T14:14:18;17.05;;;3.10;;
50319;SDS011;36226;53.464;9.852;2023-05-23T14:16:44;10.75;;;3.10;;
50319;SDS011;36226;53.464;9.852;2023-05-23T14:19:09;17.58;;;3.05;;
50319;SDS011;36226;53.464;9.852;2023-05-23T14:21:34;12.65;;;2.40;;
50319;SDS011;36226;53.464;9.852;2023-05-23T14:24:00;10.18;;;2.17;;
50319;SDS011;36226;53.464;9.852;2023-05-23T14:26:26;10.73;;;2.10;;
50319;SDS011;36226;53.464;9.852;2023-05-23T14:28:51;10.07;;;2.22;;
50319;SDS011;36226;53.464;9.852;2023-05-23T14:31:17;12.65;;;2.95;;
50319;SDS011;36226;53.464;9.852;2023-05-23T14:33:42;10.05;;;2.40;;
50319;SDS011;36226;53.464;9.852;2023-05-23T14:36:07;12.27;;;2.67;;
50319;SDS011;36226;53.464;9.852;2023-05-23T14:38:33;13.35;;;3.08;;
50319;SDS011;36226;53.464;9.852;2023-05-23T14:40:58;16.73;;;2.55;;
50319;SDS011;36226;53.464;9.852;2023-05-23T14:43:24;13.45;;;2.90;;
50319;SDS011;36226;53.464;9.852;2023-05-23T14:45:49;20.88;;;3.28;;
50319;SDS011;36226;53.464;9.852;2023-05-23T14:48:15;15.73;;;2.70;;
50319;SDS011;36226;53.464;9.852;2023-05-23T14:50:41;13.98;;;2.90;;
50319;SDS011;36226;53.464;9.852;2023-05-23T14:53:06;17.50;;;3.00;;
50319;SDS011;36226;53.464;9.852;2023-05-23T14:55:31;15.13;;;2.75;;